createdAt,value
2022-11-18T00:01:31.756Z,9.20
2022-11-18T00:04:00.275Z,9.30
2022-11-18T00:06:31.264Z,9.30
2022-11-18T00:09:02.155Z,9.30
2022-11-18T00:11:48.900Z,9.30
2022-11-18T00:14:23.209Z,9.30
2022-11-18T00:16:55.110Z,9.30
2022-11-18T00:19:27.702Z,9.20
2022-11-18T00:21:56.768Z,9.20
2022-11-18T00:24:27.285Z,9.20
2022-11-18T00:26:56.192Z,9.30
2022-11-18T00:29:26.227Z,9.30
2022-11-18T00:31:54.470Z,9.30
2022-11-18T00:34:23.036Z,9.30
2022-11-18T00:36:51.741Z,9.30
2022-11-18T00:39:21.630Z,9.30
2022-11-18T00:42:09.473Z,9.30
2022-11-18T00:44:37.984Z,9.30
2022-11-18T00:47:06.833Z,9.30
2022-11-18T00:49:35.459Z,9.40
2022-11-18T00:52:03.930Z,9.40
2022-11-18T00:54:32.277Z,9.40
2022-11-18T00:57:01.950Z,9.30
2022-11-18T00:59:30.322Z,9.40
2022-11-18T01:01:58.683Z,9.40
2022-11-18T01:04:26.903Z,9.40
2022-11-18T01:06:55.192Z,9.40
2022-11-18T01:09:23.593Z,9.40
2022-11-18T01:12:09.288Z,9.40
2022-11-18T01:14:39.159Z,9.40
2022-11-18T01:17:07.692Z,9.40
2022-11-18T01:19:36.797Z,9.40
2022-11-18T01:22:05.456Z,9.40
2022-11-18T01:24:35.257Z,9.40
2022-11-18T01:27:04.026Z,9.40
2022-11-18T01:29:32.575Z,9.40
2022-11-18T01:32:23.267Z,9.40
2022-11-18T01:34:50.905Z,9.40
2022-11-18T01:37:19.280Z,9.40
2022-11-18T01:39:47.732Z,9.40
2022-11-18T01:42:18.369Z,9.40
2022-11-18T01:45:00.444Z,9.40
2022-11-18T01:47:34.232Z,9.50
2022-11-18T01:50:03.981Z,9.50
2022-11-18T01:52:33.979Z,9.50
2022-11-18T01:55:11.071Z,9.50
2022-11-18T01:57:39.701Z,9.50
2022-11-18T02:00:10.104Z,9.40
2022-11-18T02:02:40.151Z,9.50
2022-11-18T02:05:11.871Z,9.50
2022-11-18T02:07:44.055Z,9.40
2022-11-18T02:10:21.861Z,9.40
2022-11-18T02:12:51.540Z,9.40
2022-11-18T02:15:38.617Z,9.40
2022-11-18T02:18:22.302Z,9.30
2022-11-18T02:20:52.436Z,9.30
2022-11-18T02:24:14.456Z,9.30
2022-11-18T02:27:27.606Z,9.30
2022-11-18T02:30:00.229Z,9.20
2022-11-18T02:32:34.882Z,9.30
2022-11-18T02:35:08.994Z,9.20
2022-11-18T02:37:45.511Z,9.20
2022-11-18T02:40:19.915Z,9.20
2022-11-18T02:42:56.230Z,9.20
2022-11-18T02:45:28.855Z,9.20
2022-11-18T02:47:58.724Z,9.20
2022-11-18T02:50:30.193Z,9.10
2022-11-18T02:53:02.827Z,9.10
2022-11-18T02:55:34.643Z,9.10
2022-11-18T02:58:05.900Z,9.10
2022-11-18T03:00:37.327Z,9.00
2022-11-18T03:03:28.013Z,9.00
2022-11-18T03:06:06.823Z,9.00
2022-11-18T03:08:40.811Z,9.00
2022-11-18T03:11:16.794Z,9.00
2022-11-18T03:13:59.466Z,9.00
2022-11-18T03:16:33.545Z,9.00
2022-11-18T03:19:11.401Z,9.00
2022-11-18T03:21:45.808Z,9.00
2022-11-18T03:24:20.505Z,9.00
2022-11-18T03:26:57.292Z,9.00
2022-11-18T03:29:32.909Z,9.00
2022-11-18T03:32:08.213Z,9.00
2022-11-18T03:34:40.825Z,9.00
2022-11-18T03:37:13.344Z,9.00
2022-11-18T03:39:46.655Z,9.00
2022-11-18T03:42:20.801Z,9.00
2022-11-18T03:44:54.842Z,9.00
2022-11-18T03:47:30.447Z,9.00
2022-11-18T03:50:03.970Z,9.00
2022-11-18T03:52:36.801Z,9.00
2022-11-18T03:55:12.468Z,9.00
2022-11-18T03:57:49.785Z,9.00
2022-11-18T04:00:20.322Z,9.00
2022-11-18T04:02:51.806Z,9.00
2022-11-18T04:05:20.695Z,9.00
2022-11-18T04:07:57.630Z,9.00
2022-11-18T04:10:31.213Z,8.90
2022-11-18T04:13:07.116Z,8.90
2022-11-18T04:15:39.751Z,8.90
2022-11-18T04:18:09.930Z,8.90
2022-11-18T04:20:38.552Z,8.90
2022-11-18T04:23:08.541Z,8.90
2022-11-18T04:25:37.251Z,8.90
2022-11-18T04:28:06.352Z,8.80
2022-11-18T04:30:36.117Z,8.80
2022-11-18T04:33:05.222Z,8.80
2022-11-18T04:35:35.024Z,8.80
2022-11-18T04:38:04.977Z,8.70
2022-11-18T04:40:33.697Z,8.70
2022-11-18T04:43:02.185Z,8.70
2022-11-18T04:45:30.536Z,8.70
2022-11-18T04:48:03.481Z,8.70
2022-11-18T04:50:32.524Z,8.60
2022-11-18T04:53:02.366Z,8.60
2022-11-18T04:55:30.985Z,8.60
2022-11-18T04:57:59.495Z,8.60
2022-11-18T05:00:27.977Z,8.60
2022-11-18T05:02:56.388Z,8.60
2022-11-18T05:05:24.902Z,8.60
2022-11-18T05:07:53.172Z,8.50
2022-11-18T05:10:22.895Z,8.50
2022-11-18T05:12:50.259Z,8.50
2022-11-18T05:15:21.003Z,8.50
2022-11-18T05:17:49.563Z,8.40
2022-11-18T05:20:18.799Z,8.40
2022-11-18T05:22:47.180Z,8.40
2022-11-18T05:25:15.543Z,8.40
2022-11-18T05:27:45.202Z,8.50
2022-11-18T05:30:15.231Z,8.50
2022-11-18T05:32:43.489Z,8.40
2022-11-18T05:35:11.909Z,8.50
2022-11-18T05:37:40.248Z,8.50
2022-11-18T05:40:10.826Z,8.50
2022-11-18T05:42:56.695Z,8.50
2022-11-18T05:45:26.408Z,8.40
2022-11-18T05:48:04.782Z,8.40
2022-11-18T05:50:35.607Z,8.40
2022-11-18T05:53:05.669Z,8.50
2022-11-18T05:55:41.083Z,8.50
2022-11-18T05:58:09.707Z,8.50
2022-11-18T06:00:39.475Z,8.40
2022-11-18T06:03:14.669Z,8.40
2022-11-18T06:05:43.525Z,8.40
2022-11-18T06:08:13.377Z,8.30
2022-11-18T06:10:44.706Z,8.30
2022-11-18T06:13:19.886Z,8.30
2022-11-18T06:15:50.873Z,8.30
2022-11-18T06:18:24.808Z,8.20
2022-11-18T06:20:56.656Z,8.20
2022-11-18T06:23:25.288Z,8.30
2022-11-18T06:25:54.081Z,8.30
2022-11-18T06:28:23.816Z,8.30
2022-11-18T06:30:54.081Z,8.30
2022-11-18T06:33:23.017Z,8.30
2022-11-18T06:35:51.347Z,8.30
2022-11-18T06:38:19.925Z,8.30
2022-11-18T06:40:48.318Z,8.30
2022-11-18T06:43:34.122Z,8.30
2022-11-18T06:46:23.254Z,8.30
2022-11-18T06:48:51.921Z,8.30
2022-11-18T06:51:20.589Z,8.30
2022-11-18T06:53:49.098Z,8.30
2022-11-18T06:56:19.318Z,8.40
2022-11-18T06:58:48.033Z,8.40
2022-11-18T07:01:21.616Z,8.40
2022-11-18T07:03:50.698Z,8.40
2022-11-18T07:06:22.117Z,8.50
2022-11-18T07:08:51.339Z,8.50
2022-11-18T07:11:22.439Z,8.50
2022-11-18T07:13:50.939Z,8.50
2022-11-18T07:16:22.872Z,8.50
2022-11-18T07:18:52.964Z,8.50
2022-11-18T07:21:24.004Z,8.50
2022-11-18T07:23:52.896Z,8.50
2022-11-18T07:26:22.007Z,8.60
2022-11-18T07:28:50.710Z,8.60
2022-11-18T07:31:22.292Z,8.60
2022-11-18T07:33:53.710Z,8.60
2022-11-18T07:36:24.452Z,8.60
2022-11-18T07:38:53.514Z,8.50
2022-11-18T07:41:23.768Z,8.50
2022-11-18T07:43:57.537Z,8.50
2022-11-18T07:46:32.610Z,8.50
2022-11-18T07:49:03.414Z,8.40
2022-11-18T07:51:35.896Z,8.40
2022-11-18T07:54:08.456Z,8.40
2022-11-18T07:56:37.171Z,8.30
2022-11-18T07:59:06.674Z,8.40
2022-11-18T08:01:36.663Z,8.40
2022-11-18T08:04:10.860Z,8.40
2022-11-18T08:06:39.859Z,8.40
2022-11-18T08:09:09.998Z,8.40
2022-11-18T08:11:38.716Z,8.40
2022-11-18T08:14:07.210Z,8.40
2022-11-18T08:16:36.994Z,8.40
2022-11-18T08:19:05.617Z,8.40
2022-11-18T08:21:33.908Z,8.40
2022-11-18T08:24:02.311Z,8.40
2022-11-18T08:26:30.660Z,8.40
2022-11-18T08:28:59.516Z,8.40
2022-11-18T08:31:30.728Z,8.40
2022-11-18T08:34:02.600Z,8.40
2022-11-18T08:36:34.102Z,8.40
2022-11-18T08:39:04.837Z,8.40
2022-11-18T08:41:36.402Z,8.40
2022-11-18T08:44:06.576Z,8.40
2022-11-18T08:46:35.126Z,8.50
2022-11-18T08:49:05.242Z,8.60
2022-11-18T08:51:33.696Z,8.60
2022-11-18T08:54:02.132Z,8.60
2022-11-18T08:56:30.584Z,8.60
2022-11-18T08:58:58.911Z,8.60
2022-11-18T09:01:27.530Z,8.60
2022-11-18T09:03:57.617Z,8.60
2022-11-18T09:06:27.332Z,8.70
2022-11-18T09:08:56.024Z,8.70
2022-11-18T09:11:27.644Z,8.70
2022-11-18T09:15:05.856Z,8.80
2022-11-18T09:16:46.795Z,8.80
2022-11-18T09:19:46.795Z,8.80
2022-11-18T09:22:07.231Z,8.80
2022-11-18T09:24:36.738Z,8.90
2022-11-18T09:27:09.591Z,8.90
2022-11-18T09:29:40.674Z,8.90
2022-11-18T09:32:08.992Z,8.90
2022-11-18T09:34:37.378Z,8.90
2022-11-18T09:37:07.535Z,8.90
2022-11-18T09:39:37.516Z,8.90
2022-11-18T09:42:28.829Z,9.00
2022-11-18T09:45:25.162Z,9.00
2022-11-18T09:47:58.158Z,9.00
2022-11-18T09:50:48.549Z,9.10
2022-11-18T09:53:21.795Z,9.00
2022-11-18T09:55:52.175Z,9.10
2022-11-18T09:58:35.367Z,9.10
2022-11-18T10:01:05.142Z,9.20
2022-11-18T10:03:34.961Z,9.30
2022-11-18T10:06:19.152Z,9.30
2022-11-18T10:09:06.618Z,9.40
2022-11-18T10:11:43.353Z,9.40
2022-11-18T10:14:28.088Z,9.40
2022-11-18T10:17:04.323Z,9.40
2022-11-18T10:19:40.016Z,9.40
2022-11-18T10:22:24.374Z,9.50
2022-11-18T10:24:56.554Z,9.40
2022-11-18T10:27:39.169Z,9.40
2022-11-18T10:30:14.945Z,9.40
2022-11-18T10:33:00.839Z,9.40
2022-11-18T10:35:35.900Z,9.40
2022-11-18T10:38:09.007Z,9.40
2022-11-18T10:40:45.651Z,9.50
2022-11-18T10:43:14.450Z,9.50
2022-11-18T10:45:42.921Z,9.50
2022-11-18T10:48:19.810Z,9.40
2022-11-18T10:50:55.003Z,9.50
2022-11-18T10:53:32.683Z,9.50
2022-11-18T10:56:04.611Z,9.50
2022-11-18T10:58:37.730Z,9.60
2022-11-18T11:01:08.938Z,9.70
2022-11-18T11:03:40.195Z,9.70
2022-11-18T11:06:32.985Z,9.80
2022-11-18T11:09:05.989Z,9.90
2022-11-18T11:11:40.007Z,9.90
2022-11-18T11:14:24.995Z,9.90
2022-11-18T11:17:05.357Z,10.00
2022-11-18T11:19:45.788Z,10.00
2022-11-18T11:22:14.503Z,10.00
2022-11-18T11:24:43.412Z,10.10
2022-11-18T11:30:40.796Z,10.10
2022-11-18T11:33:28.427Z,10.00
2022-11-18T11:36:21.660Z,10.00
2022-11-18T11:39:18.733Z,10.20
2022-11-18T11:41:56.193Z,10.20
2022-11-18T11:44:49.389Z,10.30
2022-11-18T11:47:50.441Z,10.40
2022-11-18T11:50:30.365Z,10.50
2022-11-18T11:53:16.205Z,10.50
2022-11-18T11:56:00.645Z,10.40
2022-11-18T11:58:51.102Z,10.30
2022-11-18T12:01:34.092Z,10.30
2022-11-18T12:04:16.330Z,10.30
2022-11-18T12:06:48.229Z,10.30
2022-11-18T12:09:23.188Z,10.30
2022-11-18T12:11:57.285Z,10.40
2022-11-18T12:14:39.558Z,10.50
2022-11-18T12:17:19.284Z,10.60
2022-11-18T12:19:47.642Z,10.80
2022-11-18T12:22:15.945Z,11.00
2022-11-18T12:24:44.964Z,11.10
2022-11-18T12:27:36.429Z,11.10
2022-11-18T12:30:06.207Z,11.10
2022-11-18T12:32:42.570Z,11.10
2022-11-18T12:35:27.930Z,11.10
2022-11-18T12:38:02.921Z,11.00
2022-11-18T12:40:50.505Z,11.00
2022-11-18T12:44:07.496Z,11.00
2022-11-18T12:46:56.441Z,11.00
2022-11-18T12:50:16.582Z,10.90
2022-11-18T12:52:53.655Z,11.00
2022-11-18T12:55:38.842Z,11.10
2022-11-18T12:58:24.389Z,11.10
2022-11-18T13:00:55.654Z,11.10
2022-11-18T13:03:31.326Z,11.20
2022-11-18T13:06:13.637Z,11.30
2022-11-18T13:08:43.103Z,11.20
2022-11-18T13:11:35.700Z,11.20
2022-11-18T13:14:24.695Z,11.20
2022-11-18T13:17:11.690Z,11.20
2022-11-18T13:19:40.129Z,11.00
2022-11-18T13:22:37.249Z,10.90
2022-11-18T13:25:05.960Z,10.90
2022-11-18T13:27:46.761Z,11.00
2022-11-18T13:30:16.281Z,10.90
2022-11-18T13:32:46.563Z,10.80
2022-11-18T13:35:18.124Z,10.80
2022-11-18T13:37:53.577Z,10.70
2022-11-18T13:40:26.205Z,10.60
2022-11-18T13:42:54.802Z,10.60
2022-11-18T13:45:27.954Z,10.60
2022-11-18T13:48:02.826Z,10.60
2022-11-18T13:50:35.971Z,10.60
2022-11-18T13:53:19.857Z,10.60
2022-11-18T13:55:52.693Z,10.60
2022-11-18T13:59:15.878Z,10.60
2022-11-18T14:01:35.095Z,10.50
2022-11-18T14:04:06.999Z,10.50
2022-11-18T14:06:37.504Z,10.50
2022-11-18T14:09:20.494Z,10.50
2022-11-18T14:12:02.299Z,10.40
2022-11-18T14:14:34.157Z,10.30
2022-11-18T14:17:17.394Z,10.20
2022-11-18T14:19:46.984Z,10.10
2022-11-18T14:22:19.163Z,10.00
2022-11-18T14:24:58.427Z,10.00
2022-11-18T14:27:37.433Z,9.90
2022-11-18T14:30:36.142Z,9.90
2022-11-18T14:33:17.479Z,9.90
2022-11-18T14:35:50.329Z,9.90
2022-11-18T14:38:38.294Z,9.80
2022-11-18T14:41:14.906Z,9.80
2022-11-18T14:43:45.852Z,9.80
2022-11-18T14:46:17.667Z,9.80
2022-11-18T14:48:46.536Z,9.90
2022-11-18T14:51:16.997Z,9.90
2022-11-18T14:53:45.810Z,9.90
2022-11-18T14:56:21.890Z,9.90
2022-11-18T14:58:50.101Z,9.90
2022-11-18T15:01:18.274Z,9.90
2022-11-18T15:03:47.187Z,9.90
2022-11-18T15:06:15.985Z,9.90
2022-11-18T15:08:45.952Z,9.80
2022-11-18T15:11:15.851Z,9.80
2022-11-18T15:13:44.123Z,9.90
2022-11-18T15:16:16.615Z,9.80
2022-11-18T15:18:47.123Z,9.80
2022-11-18T15:21:15.949Z,9.70
2022-11-18T15:23:44.166Z,9.60
2022-11-18T15:26:21.604Z,9.60
2022-11-18T15:28:53.044Z,9.50
2022-11-18T15:31:21.525Z,9.40
2022-11-18T15:33:51.059Z,9.40
2022-11-18T15:36:22.835Z,9.40
2022-11-18T15:38:52.189Z,9.30
2022-11-18T15:41:25.234Z,9.30
2022-11-18T15:43:55.703Z,9.30
2022-11-18T15:46:25.959Z,9.20
2022-11-18T15:48:55.114Z,9.20
2022-11-18T15:51:25.256Z,9.10
2022-11-18T15:53:53.454Z,9.10
2022-11-18T15:56:31.110Z,9.10
2022-11-18T15:59:01.652Z,9.10
2022-11-18T16:01:32.125Z,9.10
2022-11-18T16:04:00.846Z,9.10
2022-11-18T16:06:29.230Z,9.00
2022-11-18T16:09:00.319Z,9.00
2022-11-18T16:11:48.493Z,9.00
2022-11-18T16:14:19.495Z,9.00
2022-11-18T16:16:51.578Z,9.00
2022-11-18T16:19:23.672Z,9.10
2022-11-18T16:21:54.399Z,9.10
2022-11-18T16:24:25.422Z,9.00
2022-11-18T16:26:55.542Z,9.00
2022-11-18T16:29:24.690Z,9.00
2022-11-18T16:31:53.135Z,9.00
2022-11-18T16:34:23.997Z,9.00
2022-11-18T16:36:54.902Z,9.00
2022-11-18T16:39:25.605Z,9.00
2022-11-18T16:42:02.217Z,8.90
2022-11-18T16:44:35.721Z,8.90
2022-11-18T16:47:08.984Z,8.90
2022-11-18T16:49:40.783Z,8.90
2022-11-18T16:52:09.636Z,8.90
2022-11-18T16:55:07.440Z,8.90
2022-11-18T16:57:41.054Z,8.90
2022-11-18T17:00:12.470Z,8.90
2022-11-18T17:02:40.874Z,8.90
2022-11-18T17:05:10.373Z,9.00
2022-11-18T17:07:51.384Z,9.00
2022-11-18T17:10:23.354Z,9.00
2022-11-18T17:12:53.048Z,9.00
2022-11-18T17:15:21.276Z,9.00
2022-11-18T17:17:49.525Z,9.00
2022-11-18T17:20:18.414Z,9.00
2022-11-18T17:22:46.997Z,9.00
2022-11-18T17:25:15.363Z,9.00
2022-11-18T17:27:43.455Z,9.00
2022-11-18T17:30:15.138Z,9.00
2022-11-18T17:32:43.818Z,9.00
2022-11-18T17:35:11.998Z,9.00
2022-11-18T17:37:40.180Z,9.00
2022-11-18T17:40:10.622Z,9.00
2022-11-18T17:42:38.742Z,9.00
2022-11-18T17:45:08.850Z,9.00
2022-11-18T17:47:38.411Z,9.00
2022-11-18T17:50:07.442Z,9.00
2022-11-18T17:52:35.874Z,9.00
2022-11-18T17:55:04.171Z,9.00
2022-11-18T17:57:32.403Z,9.00
2022-11-18T18:00:00.479Z,9.00
2022-11-18T18:02:28.712Z,8.90
2022-11-18T18:04:58.443Z,8.90
2022-11-18T18:07:26.652Z,8.80
2022-11-18T18:09:54.915Z,8.80
2022-11-18T18:12:40.803Z,8.80
2022-11-18T18:15:10.296Z,8.80
2022-11-18T18:17:38.482Z,8.80
2022-11-18T18:20:09.752Z,8.90
2022-11-18T18:22:37.955Z,8.90
2022-11-18T18:25:07.492Z,8.90
2022-11-18T18:27:35.636Z,8.90
2022-11-18T18:30:03.894Z,8.90
2022-11-18T18:32:32.072Z,8.90
2022-11-18T18:35:00.251Z,9.00
2022-11-18T18:37:29.907Z,9.00
2022-11-18T18:39:58.039Z,9.00
2022-11-18T18:42:26.181Z,9.00
2022-11-18T18:45:12.069Z,9.00
2022-11-18T18:47:40.280Z,9.00
2022-11-18T18:50:08.628Z,9.00
2022-11-18T18:52:38.227Z,9.00
2022-11-18T18:55:07.465Z,9.00
2022-11-18T18:57:35.591Z,9.00
2022-11-18T19:00:04.757Z,9.00
2022-11-18T19:02:32.979Z,9.00
2022-11-18T19:05:01.258Z,9.00
2022-11-18T19:07:31.427Z,8.90
2022-11-18T19:10:01.027Z,8.90
2022-11-18T19:12:44.543Z,9.00
2022-11-18T19:15:15.907Z,9.00
2022-11-18T19:17:45.025Z,9.00
2022-11-18T19:20:32.569Z,9.00
2022-11-18T19:23:05.621Z,9.00
2022-11-18T19:25:38.208Z,9.00
2022-11-18T19:28:06.641Z,9.00
2022-11-18T19:30:35.079Z,9.00
2022-11-18T19:33:05.417Z,9.00
2022-11-18T19:35:33.569Z,9.00
2022-11-18T19:38:01.719Z,9.00
2022-11-18T19:40:29.867Z,9.00
2022-11-18T19:42:59.349Z,9.00
2022-11-18T19:45:27.500Z,9.00
2022-11-18T19:47:55.706Z,9.00
2022-11-18T19:50:23.817Z,9.00
2022-11-18T19:52:52.002Z,8.90
2022-11-18T19:55:20.190Z,8.90
2022-11-18T19:57:48.380Z,8.90
2022-11-18T20:00:20.338Z,8.90
2022-11-18T20:02:48.542Z,8.90
2022-11-18T20:05:34.362Z,8.80
2022-11-18T20:08:02.589Z,8.80
2022-11-18T20:10:30.764Z,8.80
2022-11-18T20:12:58.887Z,8.80
2022-11-18T20:15:28.377Z,8.80
2022-11-18T20:17:56.692Z,8.80
2022-11-18T20:20:24.927Z,8.80
2022-11-18T20:22:55.021Z,8.80
2022-11-18T20:25:23.509Z,8.80
2022-11-18T20:27:51.704Z,8.80
2022-11-18T20:30:20.744Z,8.80
2022-11-18T20:32:50.703Z,8.80
2022-11-18T20:35:19.039Z,8.80
2022-11-18T20:37:47.243Z,8.70
2022-11-18T20:40:15.495Z,8.70
2022-11-18T20:43:01.075Z,8.70
2022-11-18T20:45:29.378Z,8.70
2022-11-18T20:47:58.964Z,8.70
2022-11-18T20:50:27.109Z,8.70
2022-11-18T20:52:55.271Z,8.70
2022-11-18T20:55:23.579Z,8.70
2022-11-18T20:57:51.691Z,8.70
2022-11-18T21:00:20.499Z,8.60
2022-11-18T21:02:49.135Z,8.60
2022-11-18T21:05:18.725Z,8.60
2022-11-18T21:07:48.998Z,8.60
2022-11-18T21:10:18.120Z,8.60
2022-11-18T21:13:00.248Z,8.60
2022-11-18T21:15:28.435Z,8.60
2022-11-18T21:17:56.616Z,8.60
2022-11-18T21:20:43.528Z,8.60
2022-11-18T21:23:12.955Z,8.60
2022-11-18T21:25:41.602Z,8.60
2022-11-18T21:28:09.834Z,8.60
2022-11-18T21:30:38.174Z,8.60
2022-11-18T21:33:06.749Z,8.60
2022-11-18T21:35:36.494Z,8.60
2022-11-18T21:38:05.946Z,8.60
2022-11-18T21:40:34.161Z,8.60
2022-11-18T21:43:02.304Z,8.60
2022-11-18T21:45:30.453Z,8.60
2022-11-18T21:47:58.749Z,8.60
2022-11-18T21:50:26.919Z,8.60
2022-11-18T21:52:56.430Z,8.70
2022-11-18T21:55:24.550Z,8.60
2022-11-18T21:57:52.660Z,8.60
2022-11-18T22:00:21.274Z,8.60
2022-11-18T22:02:49.670Z,8.60
2022-11-18T22:05:17.858Z,8.60
2022-11-18T22:07:46.321Z,8.60
2022-11-18T22:10:18.307Z,8.60
2022-11-18T22:12:48.473Z,8.50
2022-11-18T22:15:16.983Z,8.50
2022-11-18T22:17:45.658Z,8.50
2022-11-18T22:20:14.037Z,8.50
2022-11-18T22:22:42.179Z,8.50
2022-11-18T22:25:10.752Z,8.50
2022-11-18T22:27:40.267Z,8.50
2022-11-18T22:30:10.169Z,8.50
2022-11-18T22:32:38.835Z,8.50
2022-11-18T22:35:08.860Z,8.50
2022-11-18T22:37:37.031Z,8.50
2022-11-18T22:40:06.395Z,8.50
2022-11-18T22:42:48.508Z,8.50
2022-11-18T22:45:19.174Z,8.50
2022-11-18T22:47:49.447Z,8.50
2022-11-18T22:50:17.944Z,8.50
2022-11-18T22:52:46.079Z,8.50
2022-11-18T22:55:14.332Z,8.40
2022-11-18T22:57:44.099Z,8.40
2022-11-18T23:00:14.248Z,8.40
2022-11-18T23:02:43.721Z,8.40
2022-11-18T23:05:12.074Z,8.40
2022-11-18T23:07:40.440Z,8.40
2022-11-18T23:10:09.671Z,8.40
2022-11-18T23:12:57.722Z,8.30
2022-11-18T23:15:25.870Z,8.30
2022-11-18T23:17:55.401Z,8.30
2022-11-18T23:20:23.645Z,8.20
2022-11-18T23:22:53.432Z,8.20
2022-11-18T23:25:21.613Z,8.20
2022-11-18T23:27:54.094Z,8.20
2022-11-18T23:30:22.577Z,8.20
2022-11-18T23:32:50.703Z,8.20
2022-11-18T23:35:20.402Z,8.10
2022-11-18T23:37:48.893Z,8.10
2022-11-18T23:40:17.774Z,8.10
2022-11-18T23:42:46.075Z,8.10
2022-11-18T23:45:14.345Z,8.00
2022-11-18T23:47:42.484Z,8.00
2022-11-18T23:50:11.641Z,8.00
2022-11-18T23:52:42.020Z,8.00
2022-11-18T23:55:11.314Z,8.00
2022-11-18T23:57:39.444Z,8.00
